createdAt,value
2019-02-23T00:00:56.141Z,5.59
2019-02-23T00:01:56.125Z,5.57
2019-02-23T00:02:56.113Z,5.64
2019-02-23T00:03:56.100Z,5.69
2019-02-23T00:04:56.090Z,5.65
2019-02-23T00:05:56.077Z,5.57
2019-02-23T00:06:56.064Z,5.57
2019-02-23T00:07:56.049Z,5.56
2019-02-23T00:08:56.037Z,5.36
2019-02-23T00:09:56.025Z,5.38
2019-02-23T00:10:56.013Z,5.35
2019-02-23T00:11:55.999Z,5.35
2019-02-23T00:12:55.988Z,5.30
2019-02-23T00:13:55.975Z,5.25
2019-02-23T00:14:55.963Z,5.30
2019-02-23T00:15:55.949Z,5.35
2019-02-23T00:16:55.937Z,5.38
2019-02-23T00:17:55.926Z,5.44
2019-02-23T00:18:55.912Z,5.38
2019-02-23T00:19:55.899Z,5.33
2019-02-23T00:20:55.887Z,5.41
2019-02-23T00:21:55.875Z,5.29
2019-02-23T00:22:55.862Z,5.26
2019-02-23T00:23:55.849Z,5.21
2019-02-23T00:24:55.837Z,5.21
2019-02-23T00:25:55.825Z,5.15
2019-02-23T00:26:55.813Z,5.14
2019-02-23T00:27:55.799Z,5.12
2019-02-23T00:28:55.789Z,5.23
2019-02-23T00:29:55.776Z,5.29
2019-02-23T00:30:55.764Z,5.30
2019-02-23T00:31:55.749Z,5.30
2019-02-23T00:32:55.738Z,5.29
2019-02-23T00:33:55.725Z,5.32
2019-02-23T00:34:55.712Z,5.39
2019-02-23T00:35:55.699Z,5.33
2019-02-23T00:36:55.686Z,5.46
2019-02-23T00:37:55.674Z,5.41
2019-02-23T00:38:55.663Z,5.47
2019-02-23T00:39:55.648Z,5.43
2019-02-23T00:40:55.635Z,5.44
2019-02-23T00:41:55.623Z,5.36
2019-02-23T00:42:55.611Z,5.30
2019-02-23T00:43:55.598Z,5.38
2019-02-23T00:44:55.587Z,5.41
2019-02-23T00:45:55.573Z,5.36
2019-02-23T00:46:55.559Z,5.38
2019-02-23T00:47:55.546Z,5.32
2019-02-23T00:48:55.533Z,5.39
2019-02-23T00:49:55.521Z,5.32
2019-02-23T00:50:55.508Z,5.36
2019-02-23T00:51:55.495Z,5.32
2019-02-23T00:52:55.485Z,5.36
2019-02-23T00:53:55.471Z,5.33
2019-02-23T00:54:55.457Z,5.39
2019-02-23T00:55:55.443Z,5.39
2019-02-23T00:56:55.431Z,5.39
2019-02-23T00:57:55.418Z,5.43
2019-02-23T00:58:55.406Z,5.36
2019-02-23T00:59:55.392Z,5.39
2019-02-23T01:00:55.378Z,5.33
2019-02-23T01:01:55.367Z,5.38
2019-02-23T01:02:55.359Z,5.35
2019-02-23T01:03:55.341Z,5.30
2019-02-23T01:04:55.329Z,5.41
2019-02-23T01:05:55.317Z,5.30
2019-02-23T01:06:55.306Z,5.39
2019-02-23T01:07:55.291Z,5.44
2019-02-23T01:08:55.367Z,5.48
2019-02-23T01:09:55.266Z,5.48
2019-02-23T01:10:58.082Z,5.41
2019-02-23T01:11:55.240Z,5.46
2019-02-23T01:12:55.229Z,5.47
2019-02-23T01:13:55.215Z,5.53
2019-02-23T01:14:55.203Z,5.57
2019-02-23T01:15:55.189Z,5.43
2019-02-23T01:16:55.177Z,5.59
2019-02-23T01:17:55.165Z,5.54
2019-02-23T01:18:55.151Z,5.48
2019-02-23T01:19:55.138Z,5.53
2019-02-23T01:20:55.126Z,5.53
2019-02-23T01:21:55.194Z,5.39
2019-02-23T01:22:55.101Z,5.36
2019-02-23T01:23:55.088Z,5.32
2019-02-23T01:24:55.075Z,5.26
2019-02-23T01:25:55.063Z,5.29
2019-02-23T01:26:55.057Z,5.25
2019-02-23T01:27:55.038Z,5.20
2019-02-23T01:28:55.027Z,5.15
2019-02-23T01:29:55.012Z,5.08
2019-02-23T01:30:55.000Z,5.02
2019-02-23T01:31:54.987Z,4.93
2019-02-23T01:32:54.975Z,4.90
2019-02-23T01:33:54.962Z,4.92
2019-02-23T01:34:54.950Z,4.87
2019-02-23T01:35:54.936Z,4.80
2019-02-23T01:36:54.925Z,4.92
2019-02-23T01:37:54.911Z,4.78
2019-02-23T01:38:54.899Z,4.80
2019-02-23T01:39:54.887Z,4.77
2019-02-23T01:40:54.873Z,4.66
2019-02-23T01:41:54.863Z,4.56
2019-02-23T01:42:54.849Z,4.58
2019-02-23T01:43:54.836Z,4.66
2019-02-23T01:44:54.824Z,4.55
2019-02-23T01:45:54.810Z,4.58
2019-02-23T01:46:54.798Z,4.59
2019-02-23T01:47:54.785Z,4.42
2019-02-23T01:48:54.773Z,4.45
2019-02-23T01:49:58.829Z,4.59
2019-02-23T01:50:54.748Z,4.52
2019-02-23T01:51:54.735Z,4.48
2019-02-23T01:52:54.724Z,4.45
2019-02-23T01:53:54.712Z,4.45
2019-02-23T01:54:54.698Z,4.44
2019-02-23T01:55:54.684Z,4.41
2019-02-23T01:56:54.676Z,4.32
2019-02-23T01:57:54.661Z,4.35
2019-02-23T01:58:54.647Z,4.40
2019-02-23T01:59:54.633Z,4.42
2019-02-23T02:00:54.621Z,4.32
2019-02-23T02:01:54.609Z,4.31
2019-02-23T02:02:54.598Z,4.37
2019-02-23T02:03:54.583Z,4.23
2019-02-23T02:04:54.570Z,4.28
2019-02-23T02:05:54.557Z,4.28
2019-02-23T02:06:54.635Z,4.34
2019-02-23T02:07:54.534Z,4.22
2019-02-23T02:08:54.523Z,4.19
2019-02-23T02:09:54.507Z,4.13
2019-02-23T02:10:54.496Z,4.16
2019-02-23T02:11:54.482Z,4.08
2019-02-23T02:12:54.468Z,4.08
2019-02-23T02:13:54.456Z,4.10
2019-02-23T02:14:54.443Z,4.08
2019-02-23T02:15:54.429Z,4.12
2019-02-23T02:16:54.419Z,4.06
2019-02-23T02:17:54.406Z,4.23
2019-02-23T02:18:54.392Z,4.26
2019-02-23T02:19:54.381Z,4.06
2019-02-23T02:20:54.366Z,4.17
2019-02-23T02:21:54.353Z,4.23
2019-02-23T02:22:54.342Z,4.23
2019-02-23T02:23:54.327Z,4.16
2019-02-23T02:24:54.315Z,4.10
2019-02-23T02:25:54.305Z,4.16
2019-02-23T02:26:54.289Z,4.19
2019-02-23T02:27:54.276Z,4.17
2019-02-23T02:28:54.263Z,4.08
2019-02-23T02:29:54.251Z,4.16
2019-02-23T02:30:54.238Z,4.06
2019-02-23T02:31:54.224Z,4.06
2019-02-23T02:32:54.211Z,4.17
2019-02-23T02:33:54.199Z,4.10
2019-02-23T02:34:54.196Z,4.12
2019-02-23T02:35:54.172Z,4.05
2019-02-23T02:36:54.160Z,3.99
2019-02-23T02:37:54.147Z,4.06
2019-02-23T02:38:54.134Z,4.01
2019-02-23T02:39:54.121Z,4.02
2019-02-23T02:40:54.109Z,4.05
2019-02-23T02:41:54.096Z,4.12
2019-02-23T02:42:54.082Z,3.96
2019-02-23T02:43:54.069Z,3.95
2019-02-23T02:44:54.055Z,3.98
2019-02-23T02:45:54.044Z,3.98
2019-02-23T02:46:54.030Z,4.01
2019-02-23T02:47:54.018Z,3.92
2019-02-23T02:48:54.005Z,3.92
2019-02-23T02:49:53.991Z,3.94
2019-02-23T02:50:53.978Z,3.94
2019-02-23T02:51:53.965Z,3.95
2019-02-23T02:52:53.952Z,3.91
2019-02-23T02:53:53.942Z,3.81
2019-02-23T02:54:53.926Z,3.88
2019-02-23T02:55:53.912Z,3.84
2019-02-23T02:56:53.899Z,3.87
2019-02-23T02:57:53.887Z,3.81
2019-02-23T02:58:53.983Z,3.68
2019-02-23T02:59:53.863Z,3.74
2019-02-23T03:00:53.849Z,3.69
2019-02-23T03:01:53.834Z,3.62
2019-02-23T03:02:53.822Z,3.69
2019-02-23T03:03:53.809Z,3.65
2019-02-23T03:04:53.795Z,3.70
2019-02-23T03:05:53.788Z,3.73
2019-02-23T03:06:53.825Z,3.95
2019-02-23T03:07:53.757Z,3.98
2019-02-23T03:08:53.747Z,3.99
2019-02-23T03:09:53.729Z,4.05
2019-02-23T03:10:53.729Z,3.95
2019-02-23T03:11:53.702Z,4.01
2019-02-23T03:12:53.689Z,3.98
2019-02-23T03:13:53.692Z,3.95
2019-02-23T03:14:53.665Z,3.92
2019-02-23T03:15:53.649Z,3.96
2019-02-23T03:16:53.637Z,3.87
2019-02-23T03:17:53.624Z,3.95
2019-02-23T03:18:53.611Z,3.81
2019-02-23T03:19:53.600Z,3.84
2019-02-23T03:20:53.584Z,3.83
2019-02-23T03:21:53.571Z,3.81
2019-02-23T03:22:53.559Z,3.83
2019-02-23T03:23:53.544Z,3.81
2019-02-23T03:24:53.531Z,3.86
2019-02-23T03:25:53.520Z,3.87
2019-02-23T03:26:53.505Z,3.83
2019-02-23T03:27:53.495Z,3.84
2019-02-23T03:28:53.480Z,3.81
2019-02-23T03:29:53.467Z,3.78
2019-02-23T03:30:53.457Z,3.78
2019-02-23T03:31:53.443Z,3.77
2019-02-23T03:32:53.427Z,3.83
2019-02-23T03:33:53.419Z,3.83
2019-02-23T03:34:53.400Z,3.87
2019-02-23T03:35:53.385Z,3.80
2019-02-23T03:36:53.376Z,3.76
2019-02-23T03:37:53.361Z,3.73
2019-02-23T03:38:53.347Z,3.76
2019-02-23T03:39:53.341Z,3.73
2019-02-23T03:40:53.320Z,3.70
2019-02-23T03:41:53.307Z,3.63
2019-02-23T03:42:53.299Z,3.62
2019-02-23T03:43:53.281Z,3.59
2019-02-23T03:44:53.267Z,3.63
2019-02-23T03:45:53.254Z,3.63
2019-02-23T03:46:53.241Z,3.63
2019-02-23T03:47:53.227Z,3.65
2019-02-23T03:48:53.215Z,3.56
2019-02-23T03:49:53.205Z,3.62
2019-02-23T03:50:53.188Z,3.55
2019-02-23T03:51:53.175Z,3.59
2019-02-23T03:52:53.163Z,3.60
2019-02-23T03:53:53.148Z,3.58
2019-02-23T03:54:53.135Z,3.42
2019-02-23T03:55:53.121Z,3.44
2019-02-23T03:56:53.107Z,3.44
2019-02-23T03:57:53.097Z,3.42
2019-02-23T03:58:53.081Z,3.45
2019-02-23T03:59:53.068Z,3.44
2019-02-23T04:00:53.057Z,3.41
2019-02-23T04:01:53.041Z,3.41
2019-02-23T04:02:53.029Z,3.44
2019-02-23T04:03:53.014Z,3.40
2019-02-23T04:04:53.001Z,3.34
2019-02-23T04:05:52.989Z,3.40
2019-02-23T04:06:52.976Z,3.41
2019-02-23T04:07:52.960Z,3.44
2019-02-23T04:08:52.948Z,3.44
2019-02-23T04:09:52.940Z,3.42
2019-02-23T04:10:52.922Z,3.42
2019-02-23T04:11:52.907Z,3.44
2019-02-23T04:12:52.895Z,3.47
2019-02-23T04:13:52.884Z,3.41
2019-02-23T04:14:52.868Z,3.32
2019-02-23T04:15:52.854Z,3.40
2019-02-23T04:16:52.840Z,3.44
2019-02-23T04:17:52.827Z,3.47
2019-02-23T04:18:52.814Z,3.41
2019-02-23T04:19:52.805Z,3.45
2019-02-23T04:21:01.131Z,3.41
2019-02-23T04:21:52.774Z,3.41
2019-02-23T04:22:52.762Z,3.47
2019-02-23T04:23:55.170Z,3.51
2019-02-23T04:24:52.734Z,3.44
2019-02-23T04:25:52.721Z,3.42
2019-02-23T04:26:52.708Z,3.48
2019-02-23T04:27:52.730Z,3.44
2019-02-23T04:28:52.684Z,3.45
2019-02-23T04:29:52.667Z,3.45
2019-02-23T04:30:52.657Z,3.41
2019-02-23T04:31:52.641Z,3.40
2019-02-23T04:32:52.629Z,3.42
2019-02-23T04:33:52.613Z,3.44
2019-02-23T04:34:52.600Z,3.42
2019-02-23T04:35:52.586Z,3.48
2019-02-23T04:36:52.574Z,3.44
2019-02-23T04:37:52.561Z,3.41
2019-02-23T04:38:52.547Z,3.37
2019-02-23T04:39:52.534Z,3.32
2019-02-23T04:40:52.525Z,3.34
2019-02-23T04:41:52.505Z,3.37
2019-02-23T04:42:52.493Z,3.40
2019-02-23T04:43:52.479Z,3.34
2019-02-23T04:44:52.465Z,3.31
2019-02-23T04:45:52.455Z,3.37
2019-02-23T04:46:52.440Z,3.41
2019-02-23T04:47:52.425Z,3.37
2019-02-23T04:48:52.412Z,3.47
2019-02-23T04:49:52.398Z,3.47
2019-02-23T04:50:52.384Z,3.55
2019-02-23T04:51:52.370Z,3.59
2019-02-23T04:52:52.356Z,3.63
2019-02-23T04:53:52.355Z,3.65
2019-02-23T04:54:52.329Z,3.65
2019-02-23T04:55:52.315Z,3.68
2019-02-23T04:56:52.301Z,3.65
2019-02-23T04:57:52.288Z,3.83
2019-02-23T04:58:52.276Z,3.86
2019-02-23T04:59:52.260Z,3.81
2019-02-23T05:00:52.246Z,3.94
2019-02-23T05:01:52.233Z,3.96
2019-02-23T05:02:52.221Z,3.87
2019-02-23T05:03:52.205Z,3.99
2019-02-23T05:04:52.191Z,3.99
2019-02-23T05:05:52.178Z,4.06
2019-02-23T05:06:52.166Z,3.99
2019-02-23T05:07:52.149Z,3.99
2019-02-23T05:08:52.136Z,4.08
2019-02-23T05:09:52.123Z,4.06
2019-02-23T05:10:52.109Z,3.96
2019-02-23T05:11:52.094Z,3.95
2019-02-23T05:12:52.108Z,3.98
2019-02-23T05:13:52.069Z,4.02
2019-02-23T05:14:52.052Z,3.99
2019-02-23T05:15:52.040Z,3.95
2019-02-23T05:16:52.025Z,3.98
2019-02-23T05:17:52.012Z,4.01
2019-02-23T05:18:51.997Z,3.96
2019-02-23T05:19:51.984Z,3.96
2019-02-23T05:20:51.969Z,4.02
2019-02-23T05:21:51.956Z,3.95
2019-02-23T05:22:51.942Z,4.05
2019-02-23T05:23:51.928Z,4.02
2019-02-23T05:24:53.494Z,3.98
2019-02-23T05:25:51.900Z,4.01
2019-02-23T05:26:51.893Z,4.08
2019-02-23T05:27:51.879Z,4.13
2019-02-23T05:28:51.859Z,4.01
2019-02-23T05:29:51.846Z,4.05
2019-02-23T05:30:51.832Z,3.96
2019-02-23T05:31:51.818Z,4.02
2019-02-23T05:32:51.803Z,4.08
2019-02-23T05:33:51.791Z,4.13
2019-02-23T05:34:51.777Z,4.14
2019-02-23T05:35:51.767Z,4.08
2019-02-23T05:36:51.747Z,4.08
2019-02-23T05:37:51.734Z,4.06
2019-02-23T05:38:51.721Z,4.10
2019-02-23T05:39:51.706Z,4.12
2019-02-23T05:40:51.693Z,4.08
2019-02-23T05:41:51.678Z,4.06
2019-02-23T05:43:00.346Z,4.06
2019-02-23T05:43:51.650Z,4.08
2019-02-23T05:44:51.637Z,4.10
2019-02-23T05:45:51.625Z,4.13
2019-02-23T05:46:51.611Z,4.02
2019-02-23T05:47:51.601Z,4.02
2019-02-23T05:48:51.584Z,4.04
2019-02-23T05:49:51.568Z,4.06
2019-02-23T05:50:51.555Z,3.98
2019-02-23T05:51:51.540Z,4.01
2019-02-23T05:52:51.527Z,4.02
2019-02-23T05:53:51.514Z,4.16
2019-02-23T05:54:51.502Z,4.12
2019-02-23T05:55:51.485Z,4.04
2019-02-23T05:56:51.472Z,4.10
2019-02-23T05:57:51.458Z,4.08
2019-02-23T05:58:51.445Z,4.12
2019-02-23T05:59:51.430Z,4.04
2019-02-23T06:00:51.417Z,4.10
2019-02-23T06:01:51.404Z,4.01
2019-02-23T06:02:51.391Z,4.04
2019-02-23T06:03:51.377Z,4.08
2019-02-23T06:04:51.363Z,4.12
2019-02-23T06:05:51.350Z,4.02
2019-02-23T06:06:51.336Z,3.96
2019-02-23T06:07:51.321Z,4.02
2019-02-23T06:08:51.310Z,3.99
2019-02-23T06:09:51.295Z,4.01
2019-02-23T06:10:51.283Z,4.01
2019-02-23T06:11:51.268Z,3.96
2019-02-23T06:12:51.254Z,3.96
2019-02-23T06:13:51.241Z,4.04
2019-02-23T06:14:51.228Z,4.02
2019-02-23T06:15:51.215Z,3.95
2019-02-23T06:16:51.200Z,4.04
2019-02-23T06:17:51.188Z,3.99
2019-02-23T06:18:51.172Z,4.06
2019-02-23T06:19:51.162Z,4.01
2019-02-23T06:20:51.146Z,4.19
2019-02-23T06:21:54.160Z,4.16
2019-02-23T06:22:51.120Z,4.17
2019-02-23T06:23:51.105Z,4.14
2019-02-23T06:24:51.090Z,4.19
2019-02-23T06:25:51.077Z,4.16
2019-02-23T06:26:51.064Z,4.16
2019-02-23T06:27:51.050Z,4.17
2019-02-23T06:28:51.035Z,4.14
2019-02-23T06:29:51.023Z,4.23
2019-02-23T06:30:51.011Z,4.23
2019-02-23T06:31:51.011Z,4.20
2019-02-23T06:32:50.979Z,4.17
2019-02-23T06:33:50.966Z,4.17
2019-02-23T06:34:50.952Z,4.05
2019-02-23T06:35:50.938Z,4.19
2019-02-23T06:36:50.923Z,4.14
2019-02-23T06:37:53.329Z,4.10
2019-02-23T06:38:50.897Z,4.08
2019-02-23T06:39:50.884Z,4.08
2019-02-23T06:40:50.868Z,4.10
2019-02-23T06:41:50.855Z,4.22
2019-02-23T06:42:50.841Z,4.19
2019-02-23T06:43:50.829Z,4.14
2019-02-23T06:44:50.813Z,4.14
2019-02-23T06:45:50.799Z,4.22
2019-02-23T06:46:50.784Z,4.14
2019-02-23T06:47:50.770Z,4.32
2019-02-23T06:48:50.756Z,4.34
2019-02-23T06:49:50.742Z,4.34
2019-02-23T06:50:50.730Z,4.32
2019-02-23T06:51:50.715Z,4.26
2019-02-23T06:52:50.700Z,4.32
2019-02-23T06:53:50.690Z,4.30
2019-02-23T06:54:50.674Z,4.23
2019-02-23T06:55:50.658Z,4.19
2019-02-23T06:56:50.644Z,4.24
2019-02-23T06:57:50.631Z,4.22
2019-02-23T06:58:50.617Z,4.26
2019-02-23T06:59:50.603Z,4.38
2019-02-23T07:00:50.588Z,4.20
2019-02-23T07:01:50.575Z,4.32
2019-02-23T07:02:50.561Z,4.35
2019-02-23T07:03:50.546Z,4.26
2019-02-23T07:04:50.535Z,4.30
2019-02-23T07:05:50.519Z,4.23
2019-02-23T07:06:50.508Z,4.28
2019-02-23T07:07:50.492Z,4.26
2019-02-23T07:08:50.477Z,4.30
2019-02-23T07:09:50.462Z,4.24
2019-02-23T07:10:50.448Z,4.32
2019-02-23T07:11:50.438Z,4.23
2019-02-23T07:12:50.419Z,4.26
2019-02-23T07:13:50.406Z,4.37
2019-02-23T07:14:50.394Z,4.35
2019-02-23T07:15:50.378Z,4.37
2019-02-23T07:16:50.369Z,4.34
2019-02-23T07:17:50.348Z,4.45
2019-02-23T07:18:50.334Z,4.28
2019-02-23T07:19:50.322Z,4.28
2019-02-23T07:20:50.306Z,4.38
2019-02-23T07:21:50.291Z,4.35
2019-02-23T07:22:50.281Z,4.41
2019-02-23T07:23:50.269Z,4.44
2019-02-23T07:24:50.249Z,4.32
2019-02-23T07:25:50.235Z,4.32
2019-02-23T07:26:50.222Z,4.35
2019-02-23T07:27:50.208Z,4.40
2019-02-23T07:28:50.192Z,4.37
2019-02-23T07:29:50.179Z,4.40
2019-02-23T07:30:50.164Z,4.40
2019-02-23T07:31:50.149Z,4.48
2019-02-23T07:32:50.137Z,4.53
2019-02-23T07:33:50.140Z,4.48
2019-02-23T07:34:50.108Z,4.42
2019-02-23T07:35:50.093Z,4.48
2019-02-23T07:36:50.079Z,4.50
2019-02-23T07:37:50.073Z,4.62
2019-02-23T07:38:50.051Z,4.60
2019-02-23T07:39:50.038Z,4.63
2019-02-23T07:40:50.023Z,4.70
2019-02-23T07:41:50.009Z,4.77
2019-02-23T07:42:50.002Z,4.74
2019-02-23T07:43:49.981Z,4.80
2019-02-23T07:44:49.969Z,4.80
2019-02-23T07:45:49.954Z,4.78
2019-02-23T07:46:49.941Z,4.75
2019-02-23T07:47:49.926Z,4.90
2019-02-23T07:48:49.913Z,4.93
2019-02-23T07:49:49.899Z,5.05
2019-02-23T07:50:49.885Z,5.04
2019-02-23T07:51:49.873Z,5.10
2019-02-23T07:52:49.858Z,5.25
2019-02-23T07:53:49.844Z,5.36
2019-02-23T07:54:49.832Z,5.59
2019-02-23T07:55:49.818Z,5.56
2019-02-23T07:56:49.812Z,5.66
2019-02-23T07:57:49.797Z,5.76
2019-02-23T07:58:49.781Z,5.83
2019-02-23T07:59:49.768Z,5.90
2019-02-23T08:00:49.756Z,5.97
2019-02-23T08:01:49.744Z,6.14
2019-02-23T08:02:49.734Z,6.19
2019-02-23T08:03:49.721Z,6.14
2019-02-23T08:04:49.710Z,6.24
2019-02-23T08:05:49.699Z,6.31
2019-02-23T08:06:49.689Z,6.31
2019-02-23T08:07:49.677Z,6.42
2019-02-23T08:08:49.665Z,6.54
2019-02-23T08:09:49.656Z,6.74
2019-02-23T08:10:49.646Z,6.84
2019-02-23T08:11:49.634Z,6.72
2019-02-23T08:12:49.624Z,6.74
2019-02-23T08:13:49.618Z,6.69
2019-02-23T08:14:49.604Z,6.79
2019-02-23T08:15:49.618Z,6.93
2019-02-23T08:16:49.583Z,6.92
2019-02-23T08:17:49.574Z,7.02
2019-02-23T08:18:49.563Z,6.95
2019-02-23T08:19:49.553Z,7.07
2019-02-23T08:20:49.543Z,7.18
2019-02-23T08:21:49.534Z,7.36
2019-02-23T08:22:49.525Z,7.31
2019-02-23T08:23:49.514Z,7.25
2019-02-23T08:24:49.507Z,7.25
2019-02-23T08:25:49.497Z,7.32
2019-02-23T08:26:49.489Z,7.32
2019-02-23T08:27:49.478Z,7.38
2019-02-23T08:28:49.468Z,7.48
2019-02-23T08:29:49.459Z,7.61
2019-02-23T08:30:49.451Z,7.88
2019-02-23T08:31:49.441Z,7.85
2019-02-23T08:32:49.433Z,7.87
2019-02-23T08:33:49.425Z,7.85
2019-02-23T08:34:49.597Z,8.03
2019-02-23T08:35:49.412Z,8.08
2019-02-23T08:36:49.401Z,8.13
2019-02-23T08:37:49.392Z,8.00
2019-02-23T08:38:49.391Z,8.01
2019-02-23T08:39:49.558Z,8.15
2019-02-23T08:40:49.369Z,8.30
2019-02-23T08:41:49.362Z,8.53
2019-02-23T08:42:49.355Z,8.63
2019-02-23T08:43:49.347Z,8.70
2019-02-23T08:44:49.341Z,8.78
2019-02-23T08:45:49.334Z,8.88
2019-02-23T08:46:49.331Z,8.92
2019-02-23T08:47:49.321Z,8.69
2019-02-23T08:48:49.315Z,8.63
2019-02-23T08:49:49.309Z,8.64
2019-02-23T08:50:49.302Z,8.48
2019-02-23T08:51:49.295Z,8.42
2019-02-23T08:52:50.356Z,8.51
2019-02-23T08:53:49.282Z,8.38
2019-02-23T08:54:49.277Z,8.60
2019-02-23T08:55:49.270Z,8.60
2019-02-23T08:56:49.265Z,8.63
2019-02-23T08:57:49.257Z,8.67
2019-02-23T08:58:49.250Z,8.84
2019-02-23T08:59:49.244Z,8.87
2019-02-23T09:00:49.237Z,9.02
2019-02-23T09:01:49.231Z,8.95
2019-02-23T09:02:49.226Z,9.28
2019-02-23T09:03:49.844Z,9.48
2019-02-23T09:04:49.213Z,9.64
2019-02-23T09:05:49.207Z,9.62
2019-02-23T09:06:49.202Z,9.74
2019-02-23T09:07:49.196Z,9.79
2019-02-23T09:08:49.191Z,9.64
2019-02-23T09:09:49.186Z,9.48
2019-02-23T09:10:49.182Z,9.48
2019-02-23T09:11:49.176Z,9.39
2019-02-23T09:12:49.171Z,9.64
2019-02-23T09:13:49.167Z,9.94
2019-02-23T09:14:49.162Z,10.04
2019-02-23T09:15:49.158Z,10.26
2019-02-23T09:16:49.154Z,10.34
2019-02-23T09:17:49.150Z,10.38
2019-02-23T09:18:49.146Z,10.19
2019-02-23T09:19:49.148Z,10.16
2019-02-23T09:20:51.705Z,9.99
2019-02-23T09:21:49.134Z,9.83
2019-02-23T09:22:59.509Z,10.07
2019-02-23T09:23:49.126Z,10.22
2019-02-23T09:24:49.122Z,10.34
2019-02-23T09:25:49.118Z,10.46
2019-02-23T09:26:49.115Z,10.76
2019-02-23T09:27:49.111Z,10.71
2019-02-23T09:28:49.108Z,10.64
2019-02-23T09:29:49.106Z,10.60
2019-02-23T09:30:49.104Z,10.33
2019-02-23T09:31:49.098Z,10.30
2019-02-23T09:32:49.095Z,10.13
2019-02-23T09:33:49.092Z,10.37
2019-02-23T09:34:49.089Z,10.48
2019-02-23T09:35:49.085Z,10.59
2019-02-23T09:36:49.082Z,10.84
2019-02-23T09:37:49.079Z,10.81
2019-02-23T09:38:49.081Z,10.94
2019-02-23T09:39:49.073Z,10.69
2019-02-23T09:40:49.070Z,10.69
2019-02-23T09:41:49.068Z,10.60
2019-02-23T09:42:49.065Z,10.81
2019-02-23T09:43:49.064Z,11.10
2019-02-23T09:44:49.060Z,11.07
2019-02-23T09:45:49.065Z,11.26
2019-02-23T09:46:49.055Z,10.97
2019-02-23T09:47:49.052Z,11.17
2019-02-23T09:48:49.048Z,11.17
2019-02-23T09:49:49.046Z,10.96
2019-02-23T09:50:49.046Z,11.00
2019-02-23T09:51:49.041Z,11.08
2019-02-23T09:52:49.038Z,10.79
2019-02-23T09:53:49.038Z,11.14
2019-02-23T09:54:49.038Z,11.47
2019-02-23T09:55:49.030Z,11.72
2019-02-23T09:56:49.028Z,12.10
2019-02-23T09:57:49.026Z,12.27
2019-02-23T09:58:49.026Z,12.27
2019-02-23T09:59:49.023Z,11.91
2019-02-23T10:00:49.022Z,11.81
2019-02-23T10:01:49.022Z,12.04
2019-02-23T10:02:49.021Z,12.09
2019-02-23T10:03:49.017Z,12.04
2019-02-23T10:04:49.016Z,12.07
2019-02-23T10:05:49.015Z,11.94
2019-02-23T10:06:49.015Z,12.00
2019-02-23T10:07:49.012Z,12.06
2019-02-23T10:08:49.011Z,12.06
2019-02-23T10:09:49.011Z,12.10
2019-02-23T10:10:49.009Z,12.24
2019-02-23T10:11:49.007Z,12.31
2019-02-23T10:12:49.006Z,12.42
2019-02-23T10:13:49.009Z,12.29
2019-02-23T10:14:49.005Z,12.46
2019-02-23T10:15:49.002Z,12.54
2019-02-23T10:16:49.002Z,12.93
2019-02-23T10:17:49.001Z,13.11
2019-02-23T10:18:49.001Z,13.19
2019-02-23T10:19:48.999Z,12.98
2019-02-23T10:20:48.999Z,12.98
2019-02-23T10:21:48.999Z,12.91
2019-02-23T10:22:48.999Z,12.94
2019-02-23T10:23:48.998Z,12.97
2019-02-23T10:24:48.997Z,13.09
2019-02-23T10:25:49.001Z,13.01
2019-02-23T10:26:48.997Z,12.93
2019-02-23T10:27:48.996Z,12.83
2019-02-23T10:28:48.996Z,12.43
2019-02-23T10:29:48.996Z,12.25
2019-02-23T10:30:48.996Z,12.25
2019-02-23T10:31:48.993Z,12.39
2019-02-23T10:32:48.993Z,12.27
2019-02-23T10:33:48.992Z,11.94
2019-02-23T10:34:48.991Z,12.15
2019-02-23T10:35:48.989Z,12.47
2019-02-23T10:36:48.988Z,12.67
2019-02-23T10:37:48.994Z,12.57
2019-02-23T10:38:48.986Z,12.57
2019-02-23T10:39:48.984Z,12.68
2019-02-23T10:40:48.987Z,12.86
2019-02-23T10:41:48.985Z,12.85
2019-02-23T10:42:48.981Z,13.01
2019-02-23T10:43:49.019Z,12.98
2019-02-23T10:44:48.982Z,12.94
2019-02-23T10:45:48.978Z,12.95
2019-02-23T10:46:48.977Z,13.09
2019-02-23T10:47:50.309Z,13.05
2019-02-23T10:48:48.974Z,13.18
2019-02-23T10:49:48.975Z,13.25
2019-02-23T10:50:48.974Z,13.12
2019-02-23T10:51:48.972Z,13.20
2019-02-23T10:52:48.973Z,12.93
2019-02-23T10:53:48.969Z,12.93
2019-02-23T10:54:48.968Z,13.27
2019-02-23T10:55:48.967Z,13.50
2019-02-23T10:56:48.967Z,13.56
2019-02-23T10:57:48.967Z,13.57
2019-02-23T10:58:48.966Z,13.63
2019-02-23T10:59:48.965Z,13.67
2019-02-23T11:00:48.971Z,13.50
2019-02-23T11:01:48.965Z,13.54
2019-02-23T11:02:48.964Z,13.54
2019-02-23T11:03:48.963Z,13.04
2019-02-23T11:04:48.963Z,13.12
2019-02-23T11:05:48.963Z,13.37
2019-02-23T11:06:48.963Z,13.52
2019-02-23T11:07:49.026Z,13.11
2019-02-23T11:08:48.960Z,12.57
2019-02-23T11:09:48.959Z,12.31
2019-02-23T11:10:48.958Z,12.25
2019-02-23T11:11:48.956Z,12.47
2019-02-23T11:12:49.028Z,12.72
2019-02-23T11:13:48.952Z,12.86
2019-02-23T11:14:48.950Z,13.00
2019-02-23T11:15:48.948Z,13.12
2019-02-23T11:16:48.946Z,13.11
2019-02-23T11:17:48.944Z,13.08
2019-02-23T11:18:48.942Z,13.27
2019-02-23T11:19:48.939Z,13.38
2019-02-23T11:20:48.940Z,13.22
2019-02-23T11:21:48.936Z,13.15
2019-02-23T11:22:48.938Z,13.28
2019-02-23T11:23:48.938Z,13.41
2019-02-23T11:24:48.930Z,13.59
2019-02-23T11:25:48.929Z,13.62
2019-02-23T11:26:48.926Z,13.75
2019-02-23T11:27:48.928Z,13.47
2019-02-23T11:28:48.922Z,13.33
2019-02-23T11:29:48.922Z,13.30
2019-02-23T11:30:48.917Z,13.54
2019-02-23T11:31:48.914Z,13.74
2019-02-23T11:32:48.912Z,14.23
2019-02-23T11:33:48.910Z,14.55
2019-02-23T11:34:48.909Z,14.50
2019-02-23T11:35:48.906Z,14.59
2019-02-23T11:36:48.905Z,14.79
2019-02-23T11:37:48.902Z,14.84
2019-02-23T11:38:48.900Z,14.58
2019-02-23T11:39:48.897Z,14.63
2019-02-23T11:40:48.897Z,14.72
2019-02-23T11:41:48.893Z,14.58
2019-02-23T11:42:48.891Z,14.50
2019-02-23T11:43:48.897Z,14.58
2019-02-23T11:44:48.886Z,14.63
2019-02-23T11:45:48.884Z,14.65
2019-02-23T11:46:59.804Z,14.77
2019-02-23T11:47:48.880Z,15.04
2019-02-23T11:48:48.877Z,15.19
2019-02-23T11:49:48.874Z,15.06
2019-02-23T11:50:48.872Z,15.27
2019-02-23T11:51:48.868Z,15.36
2019-02-23T11:52:48.866Z,15.25
2019-02-23T11:53:54.924Z,15.04
2019-02-23T11:54:48.861Z,15.29
2019-02-23T11:55:48.859Z,15.06
2019-02-23T11:56:48.854Z,14.82
2019-02-23T11:57:48.852Z,14.88
2019-02-23T11:58:48.849Z,14.92
2019-02-23T11:59:48.846Z,15.24
2019-02-23T12:00:48.843Z,15.33
2019-02-23T12:01:48.841Z,15.52
2019-02-23T12:02:52.603Z,15.61
2019-02-23T12:03:48.834Z,15.65
2019-02-23T12:04:48.832Z,15.67
2019-02-23T12:05:48.829Z,15.65
2019-02-23T12:06:48.827Z,15.37
2019-02-23T12:07:48.823Z,15.55
2019-02-23T12:08:48.821Z,15.58
2019-02-23T12:09:48.821Z,15.65
2019-02-23T12:10:48.816Z,15.95
2019-02-23T12:11:48.813Z,15.92
2019-02-23T12:12:48.810Z,15.88
2019-02-23T12:13:48.809Z,15.67
2019-02-23T12:14:48.805Z,15.49
2019-02-23T12:15:48.801Z,15.27
2019-02-23T12:16:48.799Z,15.18
2019-02-23T12:17:48.796Z,14.99
2019-02-23T12:18:48.794Z,15.04
2019-02-23T12:19:48.790Z,15.02
2019-02-23T12:20:48.787Z,14.69
2019-02-23T12:21:48.784Z,14.73
2019-02-23T12:22:48.781Z,14.94
2019-02-23T12:23:48.777Z,14.96
2019-02-23T12:24:48.774Z,15.28
2019-02-23T12:25:48.771Z,15.42
2019-02-23T12:26:48.768Z,15.58
2019-02-23T12:27:48.764Z,15.67
2019-02-23T12:28:48.762Z,15.54
2019-02-23T12:29:48.758Z,15.80
2019-02-23T12:30:48.756Z,16.10
2019-02-23T12:31:48.754Z,15.98
2019-02-23T12:32:48.748Z,16.12
2019-02-23T12:33:48.750Z,16.08
2019-02-23T12:34:48.743Z,16.42
2019-02-23T12:35:48.739Z,16.28
2019-02-23T12:36:48.737Z,16.05
2019-02-23T12:37:48.733Z,16.12
2019-02-23T12:38:48.731Z,16.09
2019-02-23T12:39:48.728Z,16.26
2019-02-23T12:40:48.725Z,16.47
2019-02-23T12:41:48.722Z,16.58
2019-02-23T12:42:48.719Z,16.28
2019-02-23T12:43:48.716Z,16.51
2019-02-23T12:44:48.714Z,16.31
2019-02-23T12:45:48.711Z,16.01
2019-02-23T12:46:48.709Z,15.67
2019-02-23T12:47:51.141Z,15.06
2019-02-23T12:48:48.702Z,15.09
2019-02-23T12:49:48.699Z,14.85
2019-02-23T12:50:48.696Z,14.88
2019-02-23T12:51:48.691Z,14.91
2019-02-23T12:52:48.691Z,15.09
2019-02-23T12:53:48.686Z,15.54
2019-02-23T12:54:48.683Z,15.88
2019-02-23T12:55:48.677Z,15.73
2019-02-23T12:56:48.676Z,15.77
2019-02-23T12:57:48.670Z,15.70
2019-02-23T12:58:48.871Z,15.95
2019-02-23T12:59:48.663Z,15.80
2019-02-23T13:00:48.659Z,15.64
2019-02-23T13:01:48.655Z,15.44
2019-02-23T13:02:48.651Z,15.46
2019-02-23T13:03:48.646Z,15.24
2019-02-23T13:04:48.642Z,15.37
2019-02-23T13:05:48.639Z,15.28
2019-02-23T13:06:48.635Z,15.18
2019-02-23T13:07:48.629Z,15.35
2019-02-23T13:08:48.625Z,15.49
2019-02-23T13:09:48.621Z,15.64
2019-02-23T13:10:48.617Z,15.65